Lehigh, North Dakota
Current Conditions -  °F | °C
As of 4:56 PM on Friday 21 Nov 2014 (Local Time) from KDIK Reporting Station
Clear Clear  
Wind Chill: 30°   Ceiling: Unl
Heat Index: 38°   Visibility: 10mi
Dew Point: 29°   Wind: 12mph
Humidity: 70%   Direction: 260°W
Pressure: 29.7"   Gusts: NA
Location:  46.9271°N, 102.754°W
Report Text: KDIK 212356Z AUTO 26010KT 10SM CLR 03/M02 A2970 RMK AO2 SLP079 T00331017 10061 20028 53004
Loading
Personal Weather Stations






























Interactive Weather Map New forecast layout! Learn more

10-Day Weather Forecast

Advertisements
Track Severe Weather on mobile